sensor_id;sensor_type;location;lat;lon;timestamp;P1;durP1;ratioP1;P2;durP2;ratioP2
31482;SDS011;18103;52.246;8.052;2022-09-12T00:01:57;10.83;;;6.77;;
31482;SDS011;18103;52.246;8.052;2022-09-12T00:04:23;14.23;;;7.27;;
31482;SDS011;18103;52.246;8.052;2022-09-12T00:06:48;13.13;;;7.57;;
31482;SDS011;18103;52.246;8.052;2022-09-12T00:09:13;11.77;;;6.20;;
31482;SDS011;18103;52.246;8.052;2022-09-12T00:11:41;7.67;;;5.93;;
31482;SDS011;18103;52.246;8.052;2022-09-12T00:14:09;11.70;;;7.00;;
31482;SDS011;18103;52.246;8.052;2022-09-12T00:16:37;17.17;;;8.83;;
31482;SDS011;18103;52.246;8.052;2022-09-12T00:19:04;13.97;;;8.13;;
31482;SDS011;18103;52.246;8.052;2022-09-12T00:21:31;11.17;;;7.67;;
31482;SDS011;18103;52.246;8.052;2022-09-12T00:23:57;11.23;;;7.53;;
31482;SDS011;18103;52.246;8.052;2022-09-12T00:26:23;16.50;;;8.63;;
31482;SDS011;18103;52.246;8.052;2022-09-12T00:28:49;15.13;;;8.93;;
31482;SDS011;18103;52.246;8.052;2022-09-12T00:31:16;19.57;;;9.17;;
31482;SDS011;18103;52.246;8.052;2022-09-12T00:33:43;18.57;;;9.10;;
31482;SDS011;18103;52.246;8.052;2022-09-12T00:36:10;15.73;;;9.47;;
31482;SDS011;18103;52.246;8.052;2022-09-12T00:38:40;19.13;;;9.73;;
31482;SDS011;18103;52.246;8.052;2022-09-12T00:41:07;20.27;;;9.60;;
31482;SDS011;18103;52.246;8.052;2022-09-12T00:43:40;17.47;;;10.20;;
31482;SDS011;18103;52.246;8.052;2022-09-12T00:49:04;18.53;;;9.77;;
31482;SDS011;18103;52.246;8.052;2022-09-12T00:51:35;14.53;;;9.73;;
31482;SDS011;18103;52.246;8.052;2022-09-12T00:54:02;12.87;;;9.10;;
31482;SDS011;18103;52.246;8.052;2022-09-12T00:56:32;17.13;;;10.00;;
31482;SDS011;18103;52.246;8.052;2022-09-12T00:59:01;14.97;;;8.80;;
31482;SDS011;18103;52.246;8.052;2022-09-12T01:01:32;15.37;;;8.53;;
31482;SDS011;18103;52.246;8.052;2022-09-12T01:03:58;16.13;;;8.47;;
31482;SDS011;18103;52.246;8.052;2022-09-12T01:06:25;13.87;;;7.53;;
31482;SDS011;18103;52.246;8.052;2022-09-12T01:08:52;13.13;;;8.10;;
31482;SDS011;18103;52.246;8.052;2022-09-12T01:11:19;12.40;;;7.33;;
31482;SDS011;18103;52.246;8.052;2022-09-12T01:13:45;12.87;;;7.40;;
31482;SDS011;18103;52.246;8.052;2022-09-12T01:16:11;13.63;;;8.10;;
31482;SDS011;18103;52.246;8.052;2022-09-12T01:18:41;11.43;;;7.17;;
31482;SDS011;18103;52.246;8.052;2022-09-12T01:24:23;14.73;;;8.03;;
31482;SDS011;18103;52.246;8.052;2022-09-12T01:30:03;10.60;;;6.80;;
31482;SDS011;18103;52.246;8.052;2022-09-12T01:32:47;12.93;;;6.60;;
31482;SDS011;18103;52.246;8.052;2022-09-12T01:35:42;14.40;;;7.13;;
31482;SDS011;18103;52.246;8.052;2022-09-12T01:38:30;12.50;;;7.43;;
31482;SDS011;18103;52.246;8.052;2022-09-12T01:43:59;12.70;;;6.63;;
31482;SDS011;18103;52.246;8.052;2022-09-12T01:46:46;12.23;;;6.80;;
31482;SDS011;18103;52.246;8.052;2022-09-12T01:49:26;10.43;;;6.57;;
31482;SDS011;18103;52.246;8.052;2022-09-12T01:52:02;11.60;;;7.23;;
31482;SDS011;18103;52.246;8.052;2022-09-12T01:57:24;13.30;;;7.40;;
31482;SDS011;18103;52.246;8.052;2022-09-12T01:59:55;12.40;;;7.10;;
31482;SDS011;18103;52.246;8.052;2022-09-12T02:02:36;16.10;;;7.67;;
31482;SDS011;18103;52.246;8.052;2022-09-12T02:07:49;12.97;;;8.37;;
31482;SDS011;18103;52.246;8.052;2022-09-12T02:10:24;14.53;;;7.93;;
31482;SDS011;18103;52.246;8.052;2022-09-12T02:12:55;9.57;;;6.33;;
31482;SDS011;18103;52.246;8.052;2022-09-12T02:15:36;12.07;;;7.57;;
31482;SDS011;18103;52.246;8.052;2022-09-12T02:18:06;14.20;;;7.20;;
31482;SDS011;18103;52.246;8.052;2022-09-12T02:20:39;16.80;;;8.97;;
31482;SDS011;18103;52.246;8.052;2022-09-12T02:23:08;15.00;;;9.10;;
31482;SDS011;18103;52.246;8.052;2022-09-12T02:25:41;17.10;;;8.97;;
31482;SDS011;18103;52.246;8.052;2022-09-12T02:28:13;16.73;;;9.17;;
31482;SDS011;18103;52.246;8.052;2022-09-12T02:30:43;17.50;;;8.53;;
31482;SDS011;18103;52.246;8.052;2022-09-12T02:39:23;15.37;;;7.23;;
31482;SDS011;18103;52.246;8.052;2022-09-12T02:41:49;16.07;;;8.33;;
31482;SDS011;18103;52.246;8.052;2022-09-12T02:44:17;15.33;;;8.57;;
31482;SDS011;18103;52.246;8.052;2022-09-12T02:46:45;16.80;;;9.70;;
31482;SDS011;18103;52.246;8.052;2022-09-12T02:49:15;17.73;;;9.37;;
31482;SDS011;18103;52.246;8.052;2022-09-12T02:51:41;24.87;;;10.63;;
31482;SDS011;18103;52.246;8.052;2022-09-12T02:54:06;18.60;;;10.23;;
31482;SDS011;18103;52.246;8.052;2022-09-12T02:56:34;17.80;;;10.73;;
31482;SDS011;18103;52.246;8.052;2022-09-12T02:59:04;19.40;;;10.80;;
31482;SDS011;18103;52.246;8.052;2022-09-12T03:15:42;21.20;;;10.53;;
31482;SDS011;18103;52.246;8.052;2022-09-12T03:21:17;20.70;;;10.83;;
31482;SDS011;18103;52.246;8.052;2022-09-12T03:24:12;19.20;;;11.00;;
31482;SDS011;18103;52.246;8.052;2022-09-12T03:27:01;19.37;;;10.27;;
31482;SDS011;18103;52.246;8.052;2022-09-12T03:29:34;20.27;;;10.83;;
31482;SDS011;18103;52.246;8.052;2022-09-12T03:32:01;21.37;;;11.47;;
31482;SDS011;18103;52.246;8.052;2022-09-12T03:34:27;16.53;;;9.33;;
31482;SDS011;18103;52.246;8.052;2022-09-12T03:36:53;16.90;;;10.00;;
31482;SDS011;18103;52.246;8.052;2022-09-12T03:39:22;22.37;;;10.97;;
31482;SDS011;18103;52.246;8.052;2022-09-12T03:41:48;21.17;;;10.53;;
31482;SDS011;18103;52.246;8.052;2022-09-12T03:44:14;21.60;;;10.93;;
31482;SDS011;18103;52.246;8.052;2022-09-12T03:46:40;22.23;;;12.13;;
31482;SDS011;18103;52.246;8.052;2022-09-12T03:49:05;22.53;;;11.43;;
31482;SDS011;18103;52.246;8.052;2022-09-12T03:51:30;25.47;;;11.40;;
31482;SDS011;18103;52.246;8.052;2022-09-12T03:53:56;23.83;;;11.50;;
31482;SDS011;18103;52.246;8.052;2022-09-12T03:56:21;23.77;;;12.17;;
31482;SDS011;18103;52.246;8.052;2022-09-12T03:58:47;19.93;;;11.40;;
31482;SDS011;18103;52.246;8.052;2022-09-12T04:01:16;23.60;;;11.27;;
31482;SDS011;18103;52.246;8.052;2022-09-12T04:03:44;26.03;;;11.70;;
31482;SDS011;18103;52.246;8.052;2022-09-12T04:06:14;23.57;;;11.63;;
31482;SDS011;18103;52.246;8.052;2022-09-12T04:08:42;34.30;;;11.20;;
31482;SDS011;18103;52.246;8.052;2022-09-12T04:11:13;29.13;;;11.83;;
31482;SDS011;18103;52.246;8.052;2022-09-12T04:13:39;20.87;;;11.63;;
31482;SDS011;18103;52.246;8.052;2022-09-12T04:16:06;22.60;;;11.40;;
31482;SDS011;18103;52.246;8.052;2022-09-12T04:18:32;23.60;;;11.20;;
31482;SDS011;18103;52.246;8.052;2022-09-12T04:21:05;28.07;;;12.67;;
31482;SDS011;18103;52.246;8.052;2022-09-12T04:23:32;22.23;;;11.90;;
31482;SDS011;18103;52.246;8.052;2022-09-12T04:25:58;23.83;;;12.30;;
31482;SDS011;18103;52.246;8.052;2022-09-12T04:28:25;23.67;;;11.90;;
31482;SDS011;18103;52.246;8.052;2022-09-12T04:30:52;25.30;;;12.23;;
31482;SDS011;18103;52.246;8.052;2022-09-12T04:33:19;20.73;;;10.50;;
31482;SDS011;18103;52.246;8.052;2022-09-12T04:35:44;22.90;;;10.93;;
31482;SDS011;18103;52.246;8.052;2022-09-12T04:38:10;21.37;;;12.03;;
31482;SDS011;18103;52.246;8.052;2022-09-12T04:40:38;20.17;;;10.70;;
31482;SDS011;18103;52.246;8.052;2022-09-12T04:43:04;21.93;;;11.00;;
31482;SDS011;18103;52.246;8.052;2022-09-12T04:45:31;23.30;;;11.43;;
31482;SDS011;18103;52.246;8.052;2022-09-12T04:47:56;24.93;;;11.70;;
31482;SDS011;18103;52.246;8.052;2022-09-12T04:50:22;28.00;;;12.17;;
31482;SDS011;18103;52.246;8.052;2022-09-12T04:52:51;22.80;;;11.00;;
31482;SDS011;18103;52.246;8.052;2022-09-12T04:55:18;22.33;;;11.50;;
31482;SDS011;18103;52.246;8.052;2022-09-12T04:57:45;23.20;;;11.00;;
31482;SDS011;18103;52.246;8.052;2022-09-12T05:00:10;21.80;;;11.23;;
31482;SDS011;18103;52.246;8.052;2022-09-12T05:02:37;21.67;;;12.10;;
31482;SDS011;18103;52.246;8.052;2022-09-12T05:05:03;23.93;;;12.00;;
31482;SDS011;18103;52.246;8.052;2022-09-12T05:07:28;25.00;;;11.83;;
31482;SDS011;18103;52.246;8.052;2022-09-12T05:09:54;20.83;;;10.97;;
31482;SDS011;18103;52.246;8.052;2022-09-12T05:12:23;22.53;;;10.87;;
31482;SDS011;18103;52.246;8.052;2022-09-12T05:14:49;23.70;;;11.20;;
31482;SDS011;18103;52.246;8.052;2022-09-12T05:17:15;23.17;;;12.13;;
31482;SDS011;18103;52.246;8.052;2022-09-12T05:19:43;27.97;;;13.07;;
31482;SDS011;18103;52.246;8.052;2022-09-12T05:22:09;25.10;;;12.57;;
31482;SDS011;18103;52.246;8.052;2022-09-12T05:24:34;22.47;;;12.37;;
31482;SDS011;18103;52.246;8.052;2022-09-12T05:27:03;27.30;;;12.67;;
31482;SDS011;18103;52.246;8.052;2022-09-12T05:29:29;25.70;;;12.23;;
31482;SDS011;18103;52.246;8.052;2022-09-12T05:31:54;25.47;;;12.53;;
31482;SDS011;18103;52.246;8.052;2022-09-12T05:34:20;23.40;;;12.53;;
31482;SDS011;18103;52.246;8.052;2022-09-12T05:36:45;23.13;;;12.00;;
31482;SDS011;18103;52.246;8.052;2022-09-12T05:39:11;24.67;;;12.67;;
31482;SDS011;18103;52.246;8.052;2022-09-12T05:41:37;25.37;;;12.93;;
31482;SDS011;18103;52.246;8.052;2022-09-12T05:44:03;25.97;;;12.80;;
31482;SDS011;18103;52.246;8.052;2022-09-12T05:46:34;28.93;;;12.60;;
31482;SDS011;18103;52.246;8.052;2022-09-12T05:49:02;28.53;;;12.87;;
31482;SDS011;18103;52.246;8.052;2022-09-12T05:51:31;24.90;;;13.50;;
31482;SDS011;18103;52.246;8.052;2022-09-12T05:53:58;24.07;;;13.03;;
31482;SDS011;18103;52.246;8.052;2022-09-12T05:56:26;26.83;;;12.80;;
31482;SDS011;18103;52.246;8.052;2022-09-12T05:58:59;25.70;;;13.70;;
31482;SDS011;18103;52.246;8.052;2022-09-12T06:01:27;25.00;;;13.37;;
31482;SDS011;18103;52.246;8.052;2022-09-12T06:03:55;29.07;;;13.33;;
31482;SDS011;18103;52.246;8.052;2022-09-12T06:06:24;31.80;;;13.77;;
31482;SDS011;18103;52.246;8.052;2022-09-12T06:08:52;24.80;;;13.57;;
31482;SDS011;18103;52.246;8.052;2022-09-12T06:11:21;28.53;;;13.40;;
31482;SDS011;18103;52.246;8.052;2022-09-12T06:13:49;29.93;;;13.87;;
31482;SDS011;18103;52.246;8.052;2022-09-12T06:16:19;24.17;;;12.17;;
31482;SDS011;18103;52.246;8.052;2022-09-12T06:18:52;29.00;;;13.10;;
31482;SDS011;18103;52.246;8.052;2022-09-12T06:21:25;22.77;;;12.87;;
31482;SDS011;18103;52.246;8.052;2022-09-12T06:23:53;29.70;;;13.23;;
31482;SDS011;18103;52.246;8.052;2022-09-12T06:26:19;33.53;;;12.97;;
31482;SDS011;18103;52.246;8.052;2022-09-12T06:28:47;23.73;;;12.90;;
31482;SDS011;18103;52.246;8.052;2022-09-12T06:31:15;19.27;;;12.70;;
31482;SDS011;18103;52.246;8.052;2022-09-12T06:33:44;21.83;;;11.33;;
31482;SDS011;18103;52.246;8.052;2022-09-12T06:36:13;23.10;;;13.07;;
31482;SDS011;18103;52.246;8.052;2022-09-12T06:38:46;24.27;;;12.63;;
31482;SDS011;18103;52.246;8.052;2022-09-12T06:41:15;25.67;;;14.30;;
31482;SDS011;18103;52.246;8.052;2022-09-12T06:43:41;24.20;;;12.77;;
31482;SDS011;18103;52.246;8.052;2022-09-12T06:46:07;23.67;;;13.10;;
31482;SDS011;18103;52.246;8.052;2022-09-12T06:48:33;21.40;;;11.43;;
31482;SDS011;18103;52.246;8.052;2022-09-12T06:51:01;21.33;;;10.80;;
31482;SDS011;18103;52.246;8.052;2022-09-12T06:53:28;19.97;;;10.37;;
31482;SDS011;18103;52.246;8.052;2022-09-12T06:55:58;18.93;;;10.53;;
31482;SDS011;18103;52.246;8.052;2022-09-12T06:58:25;21.47;;;10.77;;
31482;SDS011;18103;52.246;8.052;2022-09-12T07:00:52;20.30;;;10.67;;
31482;SDS011;18103;52.246;8.052;2022-09-12T07:03:25;19.03;;;8.93;;
31482;SDS011;18103;52.246;8.052;2022-09-12T07:05:51;16.63;;;9.50;;
31482;SDS011;18103;52.246;8.052;2022-09-12T07:08:16;16.50;;;8.97;;
31482;SDS011;18103;52.246;8.052;2022-09-12T07:10:41;21.13;;;8.70;;
31482;SDS011;18103;52.246;8.052;2022-09-12T07:13:07;16.67;;;8.30;;
31482;SDS011;18103;52.246;8.052;2022-09-12T07:15:33;13.77;;;8.07;;
31482;SDS011;18103;52.246;8.052;2022-09-12T07:17:58;16.13;;;7.27;;
31482;SDS011;18103;52.246;8.052;2022-09-12T07:20:24;18.17;;;7.37;;
31482;SDS011;18103;52.246;8.052;2022-09-12T07:22:49;12.53;;;7.17;;
31482;SDS011;18103;52.246;8.052;2022-09-12T07:25:14;13.27;;;6.87;;
31482;SDS011;18103;52.246;8.052;2022-09-12T07:27:40;11.33;;;6.83;;
31482;SDS011;18103;52.246;8.052;2022-09-12T07:30:05;14.33;;;7.17;;
31482;SDS011;18103;52.246;8.052;2022-09-12T07:32:31;11.17;;;7.10;;
31482;SDS011;18103;52.246;8.052;2022-09-12T07:34:57;11.43;;;6.87;;
31482;SDS011;18103;52.246;8.052;2022-09-12T07:37:22;9.60;;;6.10;;
31482;SDS011;18103;52.246;8.052;2022-09-12T07:39:48;12.13;;;6.50;;
31482;SDS011;18103;52.246;8.052;2022-09-12T07:42:13;11.03;;;6.40;;
31482;SDS011;18103;52.246;8.052;2022-09-12T07:44:39;12.03;;;6.43;;
31482;SDS011;18103;52.246;8.052;2022-09-12T07:47:04;11.87;;;6.53;;
31482;SDS011;18103;52.246;8.052;2022-09-12T07:49:30;8.43;;;5.10;;
31482;SDS011;18103;52.246;8.052;2022-09-12T07:51:55;10.63;;;5.50;;
31482;SDS011;18103;52.246;8.052;2022-09-12T07:54:20;8.23;;;5.47;;
31482;SDS011;18103;52.246;8.052;2022-09-12T07:56:46;9.63;;;5.47;;
31482;SDS011;18103;52.246;8.052;2022-09-12T07:59:11;7.10;;;4.83;;
31482;SDS011;18103;52.246;8.052;2022-09-12T08:01:37;8.37;;;5.40;;
31482;SDS011;18103;52.246;8.052;2022-09-12T08:04:04;10.30;;;4.60;;
31482;SDS011;18103;52.246;8.052;2022-09-12T08:06:29;7.40;;;5.03;;
31482;SDS011;18103;52.246;8.052;2022-09-12T08:08:56;8.70;;;5.07;;
31482;SDS011;18103;52.246;8.052;2022-09-12T08:11:23;8.23;;;4.97;;
31482;SDS011;18103;52.246;8.052;2022-09-12T08:13:49;9.07;;;4.80;;
31482;SDS011;18103;52.246;8.052;2022-09-12T08:16:20;7.10;;;4.93;;
31482;SDS011;18103;52.246;8.052;2022-09-12T08:18:47;7.07;;;3.93;;
31482;SDS011;18103;52.246;8.052;2022-09-12T08:21:14;11.03;;;4.93;;
31482;SDS011;18103;52.246;8.052;2022-09-12T08:23:44;7.60;;;4.47;;
31482;SDS011;18103;52.246;8.052;2022-09-12T08:26:11;9.60;;;5.10;;
31482;SDS011;18103;52.246;8.052;2022-09-12T08:28:37;9.97;;;4.73;;
31482;SDS011;18103;52.246;8.052;2022-09-12T08:31:09;12.00;;;5.57;;
31482;SDS011;18103;52.246;8.052;2022-09-12T08:33:36;8.47;;;4.83;;
31482;SDS011;18103;52.246;8.052;2022-09-12T08:36:03;7.20;;;4.53;;
31482;SDS011;18103;52.246;8.052;2022-09-12T08:38:33;7.40;;;4.43;;
31482;SDS011;18103;52.246;8.052;2022-09-12T08:46:22;9.30;;;5.03;;
31482;SDS011;18103;52.246;8.052;2022-09-12T08:48:54;7.47;;;4.60;;
31482;SDS011;18103;52.246;8.052;2022-09-12T08:51:22;9.97;;;5.57;;
31482;SDS011;18103;52.246;8.052;2022-09-12T08:53:48;9.40;;;4.77;;
31482;SDS011;18103;52.246;8.052;2022-09-12T08:56:18;9.47;;;4.80;;
31482;SDS011;18103;52.246;8.052;2022-09-12T08:58:43;9.27;;;4.47;;
31482;SDS011;18103;52.246;8.052;2022-09-12T09:17:39;9.60;;;4.53;;
31482;SDS011;18103;52.246;8.052;2022-09-12T09:22:56;8.33;;;4.90;;
31482;SDS011;18103;52.246;8.052;2022-09-12T09:25:39;10.13;;;4.70;;
31482;SDS011;18103;52.246;8.052;2022-09-12T09:28:53;6.87;;;3.90;;
31482;SDS011;18103;52.246;8.052;2022-09-12T09:30:59;7.87;;;4.87;;
31482;SDS011;18103;52.246;8.052;2022-09-12T09:33:25;8.93;;;4.40;;
31482;SDS011;18103;52.246;8.052;2022-09-12T09:36:04;12.53;;;5.07;;
31482;SDS011;18103;52.246;8.052;2022-09-12T09:38:48;7.90;;;4.80;;
31482;SDS011;18103;52.246;8.052;2022-09-12T09:44:15;8.97;;;4.87;;
31482;SDS011;18103;52.246;8.052;2022-09-12T09:46:41;13.80;;;5.40;;
31482;SDS011;18103;52.246;8.052;2022-09-12T09:49:06;8.13;;;4.70;;
31482;SDS011;18103;52.246;8.052;2022-09-12T09:51:38;10.33;;;4.93;;
31482;SDS011;18103;52.246;8.052;2022-09-12T09:54:30;9.13;;;4.80;;
31482;SDS011;18103;52.246;8.052;2022-09-12T09:59:58;15.50;;;4.97;;
31482;SDS011;18103;52.246;8.052;2022-09-12T10:02:23;7.90;;;5.60;;
31482;SDS011;18103;52.246;8.052;2022-09-12T10:04:54;10.70;;;5.23;;
31482;SDS011;18103;52.246;8.052;2022-09-12T10:07:21;10.40;;;5.67;;
31482;SDS011;18103;52.246;8.052;2022-09-12T10:12:38;7.20;;;4.80;;
31482;SDS011;18103;52.246;8.052;2022-09-12T10:15:15;8.10;;;5.30;;
31482;SDS011;18103;52.246;8.052;2022-09-12T10:17:58;10.47;;;5.30;;
31482;SDS011;18103;52.246;8.052;2022-09-12T10:20:40;11.43;;;5.57;;
31482;SDS011;18103;52.246;8.052;2022-09-12T10:25:46;11.33;;;5.63;;
31482;SDS011;18103;52.246;8.052;2022-09-12T10:28:20;11.90;;;5.87;;
31482;SDS011;18103;52.246;8.052;2022-09-12T10:30:53;8.63;;;5.20;;
31482;SDS011;18103;52.246;8.052;2022-09-12T10:33:20;11.90;;;5.80;;
31482;SDS011;18103;52.246;8.052;2022-09-12T10:35:49;11.93;;;5.50;;
31482;SDS011;18103;52.246;8.052;2022-09-12T10:38:22;14.33;;;5.80;;
31482;SDS011;18103;52.246;8.052;2022-09-12T10:41:06;10.27;;;6.20;;
31482;SDS011;18103;52.246;8.052;2022-09-12T10:43:35;11.80;;;6.20;;
31482;SDS011;18103;52.246;8.052;2022-09-12T10:49:11;12.67;;;5.80;;
31482;SDS011;18103;52.246;8.052;2022-09-12T10:51:47;12.33;;;5.87;;
31482;SDS011;18103;52.246;8.052;2022-09-12T10:54:15;10.57;;;6.03;;
31482;SDS011;18103;52.246;8.052;2022-09-12T11:00:06;12.70;;;6.07;;
31482;SDS011;18103;52.246;8.052;2022-09-12T11:02:58;11.13;;;5.40;;
31482;SDS011;18103;52.246;8.052;2022-09-12T11:08:08;11.93;;;5.40;;
31482;SDS011;18103;52.246;8.052;2022-09-12T11:10:58;16.00;;;6.10;;
31482;SDS011;18103;52.246;8.052;2022-09-12T11:13:49;10.53;;;6.00;;
31482;SDS011;18103;52.246;8.052;2022-09-12T11:16:26;10.37;;;6.57;;
31482;SDS011;18103;52.246;8.052;2022-09-12T11:19:09;17.53;;;6.40;;
31482;SDS011;18103;52.246;8.052;2022-09-12T11:21:54;15.27;;;6.93;;
31482;SDS011;18103;52.246;8.052;2022-09-12T11:24:49;13.50;;;6.30;;
31482;SDS011;18103;52.246;8.052;2022-09-12T11:30:21;12.40;;;5.80;;
31482;SDS011;18103;52.246;8.052;2022-09-12T11:35:57;11.67;;;6.33;;
31482;SDS011;18103;52.246;8.052;2022-09-12T11:41:06;10.63;;;5.57;;
31482;SDS011;18103;52.246;8.052;2022-09-12T11:43:40;11.27;;;5.67;;
31482;SDS011;18103;52.246;8.052;2022-09-12T11:46:12;10.17;;;5.00;;
31482;SDS011;18103;52.246;8.052;2022-09-12T11:48:47;10.07;;;4.63;;
31482;SDS011;18103;52.246;8.052;2022-09-12T11:51:24;9.00;;;5.13;;
31482;SDS011;18103;52.246;8.052;2022-09-12T11:56:45;9.73;;;4.97;;
31482;SDS011;18103;52.246;8.052;2022-09-12T11:59:26;9.40;;;5.63;;
31482;SDS011;18103;52.246;8.052;2022-09-12T12:01:53;10.13;;;4.93;;
31482;SDS011;18103;52.246;8.052;2022-09-12T12:04:24;9.30;;;4.80;;
31482;SDS011;18103;52.246;8.052;2022-09-12T12:07:03;10.03;;;4.77;;
31482;SDS011;18103;52.246;8.052;2022-09-12T12:09:32;15.70;;;5.93;;
31482;SDS011;18103;52.246;8.052;2022-09-12T12:11:59;8.57;;;4.97;;
31482;SDS011;18103;52.246;8.052;2022-09-12T12:14:30;8.37;;;4.27;;
31482;SDS011;18103;52.246;8.052;2022-09-12T12:17:02;11.23;;;5.13;;
31482;SDS011;18103;52.246;8.052;2022-09-12T12:19:34;14.10;;;5.57;;
31482;SDS011;18103;52.246;8.052;2022-09-12T12:22:14;9.87;;;4.90;;
31482;SDS011;18103;52.246;8.052;2022-09-12T12:25:01;6.67;;;4.27;;
31482;SDS011;18103;52.246;8.052;2022-09-12T12:37:59;9.27;;;4.23;;
31482;SDS011;18103;52.246;8.052;2022-09-12T12:40:26;5.83;;;3.07;;
31482;SDS011;18103;52.246;8.052;2022-09-12T12:42:57;6.43;;;3.80;;
31482;SDS011;18103;52.246;8.052;2022-09-12T12:47:54;8.47;;;5.30;;
31482;SDS011;18103;52.246;8.052;2022-09-12T12:50:25;8.17;;;4.57;;
31482;SDS011;18103;52.246;8.052;2022-09-12T12:52:53;11.93;;;4.07;;
31482;SDS011;18103;52.246;8.052;2022-09-12T12:55:25;7.47;;;3.93;;
31482;SDS011;18103;52.246;8.052;2022-09-12T12:57:51;9.70;;;5.03;;
31482;SDS011;18103;52.246;8.052;2022-09-12T13:05:26;11.17;;;5.43;;
31482;SDS011;18103;52.246;8.052;2022-09-12T13:07:54;8.13;;;4.23;;
31482;SDS011;18103;52.246;8.052;2022-09-12T13:10:23;8.90;;;4.70;;
31482;SDS011;18103;52.246;8.052;2022-09-12T13:12:52;9.73;;;4.53;;
31482;SDS011;18103;52.246;8.052;2022-09-12T13:15:45;9.67;;;5.07;;
31482;SDS011;18103;52.246;8.052;2022-09-12T13:18:18;11.00;;;4.77;;
31482;SDS011;18103;52.246;8.052;2022-09-12T13:23:33;11.37;;;5.17;;
31482;SDS011;18103;52.246;8.052;2022-09-12T13:26:00;8.43;;;5.70;;
31482;SDS011;18103;52.246;8.052;2022-09-12T13:28:26;6.87;;;4.47;;
31482;SDS011;18103;52.246;8.052;2022-09-12T13:44:27;5.03;;;3.00;;
31482;SDS011;18103;52.246;8.052;2022-09-12T13:46:56;4.33;;;3.33;;
31482;SDS011;18103;52.246;8.052;2022-09-12T13:52:03;6.83;;;4.00;;
31482;SDS011;18103;52.246;8.052;2022-09-12T13:54:32;5.10;;;3.10;;
31482;SDS011;18103;52.246;8.052;2022-09-12T13:57:02;4.87;;;3.23;;
31482;SDS011;18103;52.246;8.052;2022-09-12T13:59:28;8.97;;;3.00;;
31482;SDS011;18103;52.246;8.052;2022-09-12T14:02:14;5.83;;;3.27;;
31482;SDS011;18103;52.246;8.052;2022-09-12T14:04:46;8.63;;;4.53;;
31482;SDS011;18103;52.246;8.052;2022-09-12T14:07:33;6.67;;;3.60;;
31482;SDS011;18103;52.246;8.052;2022-09-12T14:10:37;4.87;;;3.00;;
31482;SDS011;18103;52.246;8.052;2022-09-12T14:13:21;4.60;;;3.10;;
31482;SDS011;18103;52.246;8.052;2022-09-12T14:15:49;7.23;;;3.83;;
31482;SDS011;18103;52.246;8.052;2022-09-12T14:18:21;8.50;;;3.00;;
31482;SDS011;18103;52.246;8.052;2022-09-12T14:20:56;4.47;;;3.10;;
31482;SDS011;18103;52.246;8.052;2022-09-12T14:23:26;9.27;;;2.83;;
31482;SDS011;18103;52.246;8.052;2022-09-12T14:25:55;3.07;;;2.43;;
31482;SDS011;18103;52.246;8.052;2022-09-12T14:28:22;7.73;;;3.77;;
31482;SDS011;18103;52.246;8.052;2022-09-12T14:33:26;5.97;;;2.83;;
31482;SDS011;18103;52.246;8.052;2022-09-12T14:38:42;3.93;;;2.57;;
31482;SDS011;18103;52.246;8.052;2022-09-12T14:41:10;6.90;;;3.20;;
31482;SDS011;18103;52.246;8.052;2022-09-12T14:43:40;3.43;;;2.43;;
31482;SDS011;18103;52.246;8.052;2022-09-12T14:46:16;6.60;;;2.90;;
31482;SDS011;18103;52.246;8.052;2022-09-12T14:48:48;3.30;;;2.23;;
31482;SDS011;18103;52.246;8.052;2022-09-12T14:51:32;3.87;;;2.23;;
31482;SDS011;18103;52.246;8.052;2022-09-12T14:54:01;3.37;;;2.50;;
31482;SDS011;18103;52.246;8.052;2022-09-12T14:56:43;4.30;;;2.80;;
31482;SDS011;18103;52.246;8.052;2022-09-12T14:59:25;4.17;;;2.60;;
31482;SDS011;18103;52.246;8.052;2022-09-12T15:05:13;4.50;;;2.40;;
31482;SDS011;18103;52.246;8.052;2022-09-12T15:07:49;4.53;;;2.20;;
31482;SDS011;18103;52.246;8.052;2022-09-12T15:12:49;5.37;;;2.47;;
31482;SDS011;18103;52.246;8.052;2022-09-12T15:15:30;11.17;;;2.87;;
31482;SDS011;18103;52.246;8.052;2022-09-12T15:17:56;8.67;;;2.97;;
31482;SDS011;18103;52.246;8.052;2022-09-12T15:20:25;7.50;;;3.10;;
31482;SDS011;18103;52.246;8.052;2022-09-12T15:22:50;4.43;;;2.93;;
31482;SDS011;18103;52.246;8.052;2022-09-12T15:25:16;5.80;;;2.60;;
31482;SDS011;18103;52.246;8.052;2022-09-12T15:27:43;5.53;;;2.63;;
31482;SDS011;18103;52.246;8.052;2022-09-12T15:30:10;6.10;;;2.87;;
31482;SDS011;18103;52.246;8.052;2022-09-12T15:32:37;4.57;;;2.80;;
31482;SDS011;18103;52.246;8.052;2022-09-12T15:35:24;7.13;;;3.10;;
31482;SDS011;18103;52.246;8.052;2022-09-12T15:37:49;5.13;;;2.90;;
31482;SDS011;18103;52.246;8.052;2022-09-12T15:40:15;8.87;;;2.90;;
31482;SDS011;18103;52.246;8.052;2022-09-12T15:42:41;4.77;;;3.03;;
31482;SDS011;18103;52.246;8.052;2022-09-12T15:45:17;5.27;;;2.83;;
31482;SDS011;18103;52.246;8.052;2022-09-12T15:47:45;5.17;;;2.73;;
31482;SDS011;18103;52.246;8.052;2022-09-12T15:50:11;4.97;;;2.90;;
31482;SDS011;18103;52.246;8.052;2022-09-12T15:52:37;3.97;;;3.07;;
31482;SDS011;18103;52.246;8.052;2022-09-12T15:55:03;6.20;;;2.60;;
31482;SDS011;18103;52.246;8.052;2022-09-12T15:57:30;6.70;;;2.50;;
31482;SDS011;18103;52.246;8.052;2022-09-12T15:59:55;9.83;;;2.57;;
31482;SDS011;18103;52.246;8.052;2022-09-12T16:02:20;5.13;;;2.60;;
31482;SDS011;18103;52.246;8.052;2022-09-12T16:04:46;6.33;;;4.30;;
31482;SDS011;18103;52.246;8.052;2022-09-12T16:07:12;8.03;;;4.70;;
31482;SDS011;18103;52.246;8.052;2022-09-12T16:09:37;5.73;;;4.00;;
31482;SDS011;18103;52.246;8.052;2022-09-12T16:12:03;3.87;;;2.60;;
31482;SDS011;18103;52.246;8.052;2022-09-12T16:14:28;5.43;;;3.00;;
31482;SDS011;18103;52.246;8.052;2022-09-12T16:16:54;9.83;;;3.70;;
31482;SDS011;18103;52.246;8.052;2022-09-12T16:19:19;5.17;;;3.00;;
31482;SDS011;18103;52.246;8.052;2022-09-12T16:21:45;8.83;;;2.60;;
31482;SDS011;18103;52.246;8.052;2022-09-12T16:24:10;4.27;;;2.43;;
31482;SDS011;18103;52.246;8.052;2022-09-12T16:26:36;3.97;;;2.17;;
31482;SDS011;18103;52.246;8.052;2022-09-12T16:29:01;4.47;;;2.17;;
31482;SDS011;18103;52.246;8.052;2022-09-12T16:31:26;8.23;;;3.10;;
31482;SDS011;18103;52.246;8.052;2022-09-12T16:33:53;4.97;;;2.70;;
31482;SDS011;18103;52.246;8.052;2022-09-12T16:36:19;7.13;;;2.70;;
31482;SDS011;18103;52.246;8.052;2022-09-12T16:38:52;5.63;;;2.30;;
31482;SDS011;18103;52.246;8.052;2022-09-12T16:41:19;5.30;;;2.57;;
31482;SDS011;18103;52.246;8.052;2022-09-12T16:43:46;7.60;;;2.37;;
31482;SDS011;18103;52.246;8.052;2022-09-12T16:46:12;6.03;;;3.00;;
31482;SDS011;18103;52.246;8.052;2022-09-12T16:48:49;3.60;;;2.70;;
31482;SDS011;18103;52.246;8.052;2022-09-12T16:51:19;5.43;;;2.47;;
31482;SDS011;18103;52.246;8.052;2022-09-12T16:53:47;2.60;;;2.07;;
31482;SDS011;18103;52.246;8.052;2022-09-12T16:56:12;2.40;;;2.10;;
31482;SDS011;18103;52.246;8.052;2022-09-12T16:58:39;3.30;;;2.83;;
31482;SDS011;18103;52.246;8.052;2022-09-12T17:01:06;5.13;;;2.83;;
31482;SDS011;18103;52.246;8.052;2022-09-12T17:03:35;11.77;;;2.70;;
31482;SDS011;18103;52.246;8.052;2022-09-12T17:06:02;3.73;;;2.83;;
31482;SDS011;18103;52.246;8.052;2022-09-12T17:08:29;4.27;;;2.70;;
31482;SDS011;18103;52.246;8.052;2022-09-12T17:11:01;6.43;;;2.40;;
31482;SDS011;18103;52.246;8.052;2022-09-12T17:13:29;2.87;;;2.07;;
31482;SDS011;18103;52.246;8.052;2022-09-12T17:15:54;4.03;;;1.93;;
31482;SDS011;18103;52.246;8.052;2022-09-12T17:18:20;3.57;;;2.30;;